sensor_id;sensor_type;location;lat;lon;timestamp;P1;durP1;ratioP1;P2;durP2;ratioP2
6027;SDS011;3042;43.194;27.646;2023-09-19T00:02:27;28.40;;;24.17;;
6027;SDS011;3042;43.194;27.646;2023-09-19T00:04:54;28.30;;;25.90;;
6027;SDS011;3042;43.194;27.646;2023-09-19T00:07:21;26.23;;;23.93;;
6027;SDS011;3042;43.194;27.646;2023-09-19T00:09:48;27.13;;;24.53;;
6027;SDS011;3042;43.194;27.646;2023-09-19T00:12:16;29.23;;;26.40;;
6027;SDS011;3042;43.194;27.646;2023-09-19T00:14:44;27.97;;;25.13;;
6027;SDS011;3042;43.194;27.646;2023-09-19T00:17:12;26.97;;;24.67;;
6027;SDS011;3042;43.194;27.646;2023-09-19T00:19:41;27.00;;;24.80;;
6027;SDS011;3042;43.194;27.646;2023-09-19T00:22:11;27.23;;;25.00;;
6027;SDS011;3042;43.194;27.646;2023-09-19T00:24:41;28.33;;;25.27;;
6027;SDS011;3042;43.194;27.646;2023-09-19T00:27:08;30.00;;;26.03;;
6027;SDS011;3042;43.194;27.646;2023-09-19T00:29:35;29.60;;;24.80;;
6027;SDS011;3042;43.194;27.646;2023-09-19T00:32:04;26.73;;;24.77;;
6027;SDS011;3042;43.194;27.646;2023-09-19T00:34:33;27.53;;;25.47;;
6027;SDS011;3042;43.194;27.646;2023-09-19T00:37:01;28.30;;;25.77;;
6027;SDS011;3042;43.194;27.646;2023-09-19T00:39:29;27.73;;;25.20;;
6027;SDS011;3042;43.194;27.646;2023-09-19T00:41:56;32.63;;;29.70;;
6027;SDS011;3042;43.194;27.646;2023-09-19T00:44:30;28.37;;;26.03;;
6027;SDS011;3042;43.194;27.646;2023-09-19T00:46:57;30.50;;;25.77;;
6027;SDS011;3042;43.194;27.646;2023-09-19T00:49:25;28.83;;;26.43;;
6027;SDS011;3042;43.194;27.646;2023-09-19T00:51:54;30.00;;;27.70;;
6027;SDS011;3042;43.194;27.646;2023-09-19T00:54:21;29.90;;;27.40;;
6027;SDS011;3042;43.194;27.646;2023-09-19T00:56:49;29.67;;;26.93;;
6027;SDS011;3042;43.194;27.646;2023-09-19T00:59:16;31.07;;;28.03;;
6027;SDS011;3042;43.194;27.646;2023-09-19T01:01:43;29.17;;;26.33;;
6027;SDS011;3042;43.194;27.646;2023-09-19T01:04:11;29.20;;;26.73;;
6027;SDS011;3042;43.194;27.646;2023-09-19T01:06:40;30.07;;;27.67;;
6027;SDS011;3042;43.194;27.646;2023-09-19T01:09:07;29.37;;;26.70;;
6027;SDS011;3042;43.194;27.646;2023-09-19T01:11:37;29.23;;;26.40;;
6027;SDS011;3042;43.194;27.646;2023-09-19T01:14:13;32.27;;;29.10;;
6027;SDS011;3042;43.194;27.646;2023-09-19T01:16:48;29.30;;;26.60;;
6027;SDS011;3042;43.194;27.646;2023-09-19T01:19:33;33.47;;;30.83;;
6027;SDS011;3042;43.194;27.646;2023-09-19T01:22:40;31.27;;;28.47;;
6027;SDS011;3042;43.194;27.646;2023-09-19T01:25:35;29.90;;;27.50;;
6027;SDS011;3042;43.194;27.646;2023-09-19T01:28:31;29.13;;;26.73;;
6027;SDS011;3042;43.194;27.646;2023-09-19T01:31:06;28.23;;;26.10;;
6027;SDS011;3042;43.194;27.646;2023-09-19T01:33:53;30.80;;;27.70;;
6027;SDS011;3042;43.194;27.646;2023-09-19T01:36:31;32.93;;;30.27;;
6027;SDS011;3042;43.194;27.646;2023-09-19T01:39:02;32.77;;;29.47;;
6027;SDS011;3042;43.194;27.646;2023-09-19T01:41:41;33.73;;;31.03;;
6027;SDS011;3042;43.194;27.646;2023-09-19T01:44:17;32.63;;;29.83;;
6027;SDS011;3042;43.194;27.646;2023-09-19T01:46:53;27.90;;;25.77;;
6027;SDS011;3042;43.194;27.646;2023-09-19T01:49:28;27.00;;;25.10;;
6027;SDS011;3042;43.194;27.646;2023-09-19T01:52:05;28.23;;;25.07;;
6027;SDS011;3042;43.194;27.646;2023-09-19T01:54:40;28.53;;;26.00;;
6027;SDS011;3042;43.194;27.646;2023-09-19T01:57:15;30.60;;;26.10;;
6027;SDS011;3042;43.194;27.646;2023-09-19T01:59:48;28.17;;;26.30;;
6027;SDS011;3042;43.194;27.646;2023-09-19T02:02:23;28.07;;;25.73;;
6027;SDS011;3042;43.194;27.646;2023-09-19T02:04:52;30.07;;;26.20;;
6027;SDS011;3042;43.194;27.646;2023-09-19T02:07:22;29.30;;;27.23;;
6027;SDS011;3042;43.194;27.646;2023-09-19T02:09:49;29.60;;;27.70;;
6027;SDS011;3042;43.194;27.646;2023-09-19T02:12:17;30.40;;;28.10;;
6027;SDS011;3042;43.194;27.646;2023-09-19T02:14:45;28.70;;;26.60;;
6027;SDS011;3042;43.194;27.646;2023-09-19T02:17:12;30.97;;;29.07;;
6027;SDS011;3042;43.194;27.646;2023-09-19T02:19:40;31.60;;;29.20;;
6027;SDS011;3042;43.194;27.646;2023-09-19T02:22:07;32.93;;;29.53;;
6027;SDS011;3042;43.194;27.646;2023-09-19T02:24:35;31.20;;;28.93;;
6027;SDS011;3042;43.194;27.646;2023-09-19T02:27:03;32.43;;;30.03;;
6027;SDS011;3042;43.194;27.646;2023-09-19T02:29:31;33.50;;;31.10;;
6027;SDS011;3042;43.194;27.646;2023-09-19T02:31:59;34.30;;;30.80;;
6027;SDS011;3042;43.194;27.646;2023-09-19T02:34:26;32.20;;;29.80;;
6027;SDS011;3042;43.194;27.646;2023-09-19T02:36:55;32.40;;;29.90;;
6027;SDS011;3042;43.194;27.646;2023-09-19T02:39:22;30.27;;;28.07;;
6027;SDS011;3042;43.194;27.646;2023-09-19T02:41:52;31.93;;;29.30;;
6027;SDS011;3042;43.194;27.646;2023-09-19T02:44:19;30.63;;;27.83;;
6027;SDS011;3042;43.194;27.646;2023-09-19T02:46:47;32.70;;;29.70;;
6027;SDS011;3042;43.194;27.646;2023-09-19T02:49:14;30.83;;;28.63;;
6027;SDS011;3042;43.194;27.646;2023-09-19T02:51:42;32.10;;;29.50;;
6027;SDS011;3042;43.194;27.646;2023-09-19T02:54:12;32.53;;;29.40;;
6027;SDS011;3042;43.194;27.646;2023-09-19T02:56:41;33.00;;;29.87;;
6027;SDS011;3042;43.194;27.646;2023-09-19T02:59:09;36.30;;;33.60;;
6027;SDS011;3042;43.194;27.646;2023-09-19T03:01:36;30.90;;;28.27;;
6027;SDS011;3042;43.194;27.646;2023-09-19T03:04:04;28.60;;;26.63;;
6027;SDS011;3042;43.194;27.646;2023-09-19T03:06:33;31.20;;;29.00;;
6027;SDS011;3042;43.194;27.646;2023-09-19T03:09:01;27.57;;;25.43;;
6027;SDS011;3042;43.194;27.646;2023-09-19T03:11:32;31.97;;;29.77;;
6027;SDS011;3042;43.194;27.646;2023-09-19T03:14:00;31.43;;;29.30;;
6027;SDS011;3042;43.194;27.646;2023-09-19T03:16:28;30.17;;;28.17;;
6027;SDS011;3042;43.194;27.646;2023-09-19T03:18:57;28.17;;;26.37;;
6027;SDS011;3042;43.194;27.646;2023-09-19T03:21:25;31.07;;;28.47;;
6027;SDS011;3042;43.194;27.646;2023-09-19T03:23:54;30.47;;;28.33;;
6027;SDS011;3042;43.194;27.646;2023-09-19T03:26:22;33.40;;;30.50;;
6027;SDS011;3042;43.194;27.646;2023-09-19T03:28:53;33.27;;;30.83;;
6027;SDS011;3042;43.194;27.646;2023-09-19T03:31:20;32.42;;;30.00;;
6027;SDS011;3042;43.194;27.646;2023-09-19T03:33:47;36.17;;;32.97;;
6027;SDS011;3042;43.194;27.646;2023-09-19T03:36:14;32.80;;;30.00;;
6027;SDS011;3042;43.194;27.646;2023-09-19T03:38:42;33.23;;;30.23;;
6027;SDS011;3042;43.194;27.646;2023-09-19T03:41:09;32.97;;;30.27;;
6027;SDS011;3042;43.194;27.646;2023-09-19T03:43:39;32.60;;;29.63;;
6027;SDS011;3042;43.194;27.646;2023-09-19T03:46:08;34.75;;;31.65;;
6027;SDS011;3042;43.194;27.646;2023-09-19T03:48:35;31.83;;;29.30;;
6027;SDS011;3042;43.194;27.646;2023-09-19T03:51:02;33.43;;;30.20;;
6027;SDS011;3042;43.194;27.646;2023-09-19T03:53:29;33.00;;;30.03;;
6027;SDS011;3042;43.194;27.646;2023-09-19T03:55:56;33.53;;;30.47;;
6027;SDS011;3042;43.194;27.646;2023-09-19T03:58:25;34.10;;;30.67;;
6027;SDS011;3042;43.194;27.646;2023-09-19T04:00:54;34.50;;;31.10;;
6027;SDS011;3042;43.194;27.646;2023-09-19T04:03:23;32.80;;;30.00;;
6027;SDS011;3042;43.194;27.646;2023-09-19T04:05:59;38.03;;;34.30;;
6027;SDS011;3042;43.194;27.646;2023-09-19T04:08:27;34.27;;;31.67;;
6027;SDS011;3042;43.194;27.646;2023-09-19T04:10:54;34.63;;;31.43;;
6027;SDS011;3042;43.194;27.646;2023-09-19T04:13:22;55.70;;;31.30;;
6027;SDS011;3042;43.194;27.646;2023-09-19T04:15:49;34.07;;;30.60;;
6027;SDS011;3042;43.194;27.646;2023-09-19T04:18:16;44.75;;;34.20;;
6027;SDS011;3042;43.194;27.646;2023-09-19T04:20:49;39.43;;;35.23;;
6027;SDS011;3042;43.194;27.646;2023-09-19T04:23:16;41.50;;;35.07;;
6027;SDS011;3042;43.194;27.646;2023-09-19T04:25:43;46.30;;;33.77;;
6027;SDS011;3042;43.194;27.646;2023-09-19T04:28:10;39.57;;;35.40;;
6027;SDS011;3042;43.194;27.646;2023-09-19T04:30:38;37.80;;;33.47;;
6027;SDS011;3042;43.194;27.646;2023-09-19T04:33:05;37.23;;;33.67;;
6027;SDS011;3042;43.194;27.646;2023-09-19T04:35:33;37.47;;;33.90;;
6027;SDS011;3042;43.194;27.646;2023-09-19T04:38:02;41.47;;;36.00;;
6027;SDS011;3042;43.194;27.646;2023-09-19T04:40:31;42.25;;;37.75;;
6027;SDS011;3042;43.194;27.646;2023-09-19T04:42:59;39.80;;;36.03;;
6027;SDS011;3042;43.194;27.646;2023-09-19T04:45:26;39.80;;;35.67;;
6027;SDS011;3042;43.194;27.646;2023-09-19T04:47:54;42.33;;;37.90;;
6027;SDS011;3042;43.194;27.646;2023-09-19T04:50:22;42.10;;;34.83;;
6027;SDS011;3042;43.194;27.646;2023-09-19T04:52:52;36.77;;;32.97;;
6027;SDS011;3042;43.194;27.646;2023-09-19T04:55:20;37.13;;;33.37;;
6027;SDS011;3042;43.194;27.646;2023-09-19T04:57:48;47.22;;;42.33;;
6027;SDS011;3042;43.194;27.646;2023-09-19T05:00:18;43.90;;;39.40;;
6027;SDS011;3042;43.194;27.646;2023-09-19T05:02:49;53.03;;;35.67;;
6027;SDS011;3042;43.194;27.646;2023-09-19T05:05:16;39.55;;;35.53;;
6027;SDS011;3042;43.194;27.646;2023-09-19T05:07:44;40.60;;;34.27;;
6027;SDS011;3042;43.194;27.646;2023-09-19T05:10:12;40.47;;;33.80;;
6027;SDS011;3042;43.194;27.646;2023-09-19T05:12:41;37.27;;;33.60;;
6027;SDS011;3042;43.194;27.646;2023-09-19T05:15:10;35.20;;;31.93;;
6027;SDS011;3042;43.194;27.646;2023-09-19T05:17:37;40.53;;;34.58;;
6027;SDS011;3042;43.194;27.646;2023-09-19T05:20:05;40.77;;;33.13;;
6027;SDS011;3042;43.194;27.646;2023-09-19T05:22:46;55.50;;;34.00;;
6027;SDS011;3042;43.194;27.646;2023-09-19T05:25:13;48.17;;;32.83;;
6027;SDS011;3042;43.194;27.646;2023-09-19T05:27:45;33.90;;;30.90;;
6027;SDS011;3042;43.194;27.646;2023-09-19T05:30:12;34.23;;;29.90;;
6027;SDS011;3042;43.194;27.646;2023-09-19T05:32:41;34.13;;;30.77;;
6027;SDS011;3042;43.194;27.646;2023-09-19T05:35:09;38.67;;;33.20;;
6027;SDS011;3042;43.194;27.646;2023-09-19T05:37:38;31.73;;;28.63;;
6027;SDS011;3042;43.194;27.646;2023-09-19T05:40:05;32.80;;;29.43;;
6027;SDS011;3042;43.194;27.646;2023-09-19T05:42:35;39.80;;;30.73;;
6027;SDS011;3042;43.194;27.646;2023-09-19T05:45:05;56.47;;;35.30;;
6027;SDS011;3042;43.194;27.646;2023-09-19T05:47:32;39.20;;;33.40;;
6027;SDS011;3042;43.194;27.646;2023-09-19T05:50:00;36.97;;;31.87;;
6027;SDS011;3042;43.194;27.646;2023-09-19T05:52:28;37.03;;;30.97;;
6027;SDS011;3042;43.194;27.646;2023-09-19T05:54:55;35.40;;;32.10;;
6027;SDS011;3042;43.194;27.646;2023-09-19T05:57:22;36.10;;;31.87;;
6027;SDS011;3042;43.194;27.646;2023-09-19T05:59:50;34.30;;;30.77;;
6027;SDS011;3042;43.194;27.646;2023-09-19T06:02:18;32.50;;;29.50;;
6027;SDS011;3042;43.194;27.646;2023-09-19T06:04:45;30.83;;;28.40;;
6027;SDS011;3042;43.194;27.646;2023-09-19T06:07:12;50.03;;;29.48;;
6027;SDS011;3042;43.194;27.646;2023-09-19T06:09:41;32.40;;;29.00;;
6027;SDS011;3042;43.194;27.646;2023-09-19T06:12:08;33.17;;;29.80;;
6027;SDS011;3042;43.194;27.646;2023-09-19T06:14:39;27.53;;;24.90;;
6027;SDS011;3042;43.194;27.646;2023-09-19T06:17:06;25.37;;;23.07;;
6027;SDS011;3042;43.194;27.646;2023-09-19T06:19:35;26.90;;;24.50;;
6027;SDS011;3042;43.194;27.646;2023-09-19T06:22:02;27.47;;;25.27;;
6027;SDS011;3042;43.194;27.646;2023-09-19T06:24:29;27.20;;;24.97;;
6027;SDS011;3042;43.194;27.646;2023-09-19T06:26:57;27.40;;;24.50;;
6027;SDS011;3042;43.194;27.646;2023-09-19T06:29:26;25.53;;;23.30;;
6027;SDS011;3042;43.194;27.646;2023-09-19T06:31:53;28.17;;;25.30;;
6027;SDS011;3042;43.194;27.646;2023-09-19T06:34:20;26.17;;;23.70;;
6027;SDS011;3042;43.194;27.646;2023-09-19T06:36:49;33.33;;;23.90;;
6027;SDS011;3042;43.194;27.646;2023-09-19T06:39:20;25.87;;;23.17;;
6027;SDS011;3042;43.194;27.646;2023-09-19T06:41:48;39.57;;;26.33;;
6027;SDS011;3042;43.194;27.646;2023-09-19T06:44:15;26.97;;;24.40;;
6027;SDS011;3042;43.194;27.646;2023-09-19T06:46:43;23.80;;;21.53;;
6027;SDS011;3042;43.194;27.646;2023-09-19T06:49:11;24.30;;;22.30;;
6027;SDS011;3042;43.194;27.646;2023-09-19T06:51:40;27.00;;;24.52;;
6027;SDS011;3042;43.194;27.646;2023-09-19T06:54:10;25.77;;;23.37;;
6027;SDS011;3042;43.194;27.646;2023-09-19T06:56:37;25.87;;;23.27;;
6027;SDS011;3042;43.194;27.646;2023-09-19T06:59:06;23.00;;;20.80;;
6027;SDS011;3042;43.194;27.646;2023-09-19T07:01:34;24.67;;;22.33;;
6027;SDS011;3042;43.194;27.646;2023-09-19T07:04:03;25.57;;;23.17;;
6027;SDS011;3042;43.194;27.646;2023-09-19T07:06:30;21.97;;;20.00;;
6027;SDS011;3042;43.194;27.646;2023-09-19T07:08:58;24.77;;;22.17;;
6027;SDS011;3042;43.194;27.646;2023-09-19T07:11:27;24.67;;;22.30;;
6027;SDS011;3042;43.194;27.646;2023-09-19T07:13:56;32.97;;;23.80;;
6027;SDS011;3042;43.194;27.646;2023-09-19T07:16:23;23.07;;;21.17;;
6027;SDS011;3042;43.194;27.646;2023-09-19T07:18:55;45.00;;;24.60;;
6027;SDS011;3042;43.194;27.646;2023-09-19T07:21:22;33.83;;;22.57;;
6027;SDS011;3042;43.194;27.646;2023-09-19T07:23:50;29.23;;;26.37;;
6027;SDS011;3042;43.194;27.646;2023-09-19T07:26:17;31.07;;;27.83;;
6027;SDS011;3042;43.194;27.646;2023-09-19T07:28:45;33.73;;;29.60;;
6027;SDS011;3042;43.194;27.646;2023-09-19T07:31:12;117.20;;;64.97;;
6027;SDS011;3042;43.194;27.646;2023-09-19T07:33:40;330.13;;;159.30;;
6027;SDS011;3042;43.194;27.646;2023-09-19T07:36:10;153.07;;;93.60;;
6027;SDS011;3042;43.194;27.646;2023-09-19T07:38:38;104.63;;;53.90;;
6027;SDS011;3042;43.194;27.646;2023-09-19T07:41:06;81.43;;;54.23;;
6027;SDS011;3042;43.194;27.646;2023-09-19T07:43:34;65.53;;;48.40;;
6027;SDS011;3042;43.194;27.646;2023-09-19T07:46:04;48.00;;;37.30;;
6027;SDS011;3042;43.194;27.646;2023-09-19T07:48:34;22.77;;;21.23;;
6027;SDS011;3042;43.194;27.646;2023-09-19T07:51:03;27.53;;;24.87;;
6027;SDS011;3042;43.194;27.646;2023-09-19T07:53:31;26.30;;;23.90;;
6027;SDS011;3042;43.194;27.646;2023-09-19T07:56:03;21.10;;;19.40;;
6027;SDS011;3042;43.194;27.646;2023-09-19T07:58:31;20.00;;;18.60;;
6027;SDS011;3042;43.194;27.646;2023-09-19T08:01:02;17.67;;;16.67;;
6027;SDS011;3042;43.194;27.646;2023-09-19T08:03:32;18.80;;;17.60;;
6027;SDS011;3042;43.194;27.646;2023-09-19T08:06:00;20.10;;;18.53;;
6027;SDS011;3042;43.194;27.646;2023-09-19T08:08:29;29.90;;;20.87;;
6027;SDS011;3042;43.194;27.646;2023-09-19T08:10:56;20.47;;;18.73;;
6027;SDS011;3042;43.194;27.646;2023-09-19T08:13:24;20.17;;;18.47;;
6027;SDS011;3042;43.194;27.646;2023-09-19T08:15:51;23.13;;;18.37;;
6027;SDS011;3042;43.194;27.646;2023-09-19T08:18:20;21.33;;;19.73;;
6027;SDS011;3042;43.194;27.646;2023-09-19T08:20:51;19.47;;;17.53;;
6027;SDS011;3042;43.194;27.646;2023-09-19T08:23:19;70.10;;;27.17;;
6027;SDS011;3042;43.194;27.646;2023-09-19T08:25:46;49.97;;;21.10;;
6027;SDS011;3042;43.194;27.646;2023-09-19T08:28:13;54.47;;;21.07;;
6027;SDS011;3042;43.194;27.646;2023-09-19T08:30:44;30.87;;;18.17;;
6027;SDS011;3042;43.194;27.646;2023-09-19T08:33:12;19.43;;;17.90;;
6027;SDS011;3042;43.194;27.646;2023-09-19T08:35:42;19.10;;;17.87;;
6027;SDS011;3042;43.194;27.646;2023-09-19T08:38:10;20.07;;;18.57;;
6027;SDS011;3042;43.194;27.646;2023-09-19T08:40:39;21.60;;;19.70;;
6027;SDS011;3042;43.194;27.646;2023-09-19T08:43:08;19.17;;;17.87;;
6027;SDS011;3042;43.194;27.646;2023-09-19T08:45:36;19.43;;;18.13;;
6027;SDS011;3042;43.194;27.646;2023-09-19T08:48:11;18.73;;;17.30;;
6027;SDS011;3042;43.194;27.646;2023-09-19T08:50:51;23.33;;;17.40;;
6027;SDS011;3042;43.194;27.646;2023-09-19T08:53:26;30.10;;;21.17;;
6027;SDS011;3042;43.194;27.646;2023-09-19T08:55:54;19.57;;;18.37;;
6027;SDS011;3042;43.194;27.646;2023-09-19T08:58:24;19.70;;;18.50;;
6027;SDS011;3042;43.194;27.646;2023-09-19T09:00:54;25.37;;;19.77;;
6027;SDS011;3042;43.194;27.646;2023-09-19T09:03:26;26.80;;;18.60;;
6027;SDS011;3042;43.194;27.646;2023-09-19T09:06:00;25.77;;;18.60;;
6027;SDS011;3042;43.194;27.646;2023-09-19T09:08:28;18.50;;;17.20;;
6027;SDS011;3042;43.194;27.646;2023-09-19T09:10:57;21.97;;;20.40;;
6027;SDS011;3042;43.194;27.646;2023-09-19T09:13:26;19.47;;;18.27;;
6027;SDS011;3042;43.194;27.646;2023-09-19T09:15:53;20.37;;;18.47;;
6027;SDS011;3042;43.194;27.646;2023-09-19T09:18:20;21.33;;;19.10;;
6027;SDS011;3042;43.194;27.646;2023-09-19T09:20:48;20.87;;;18.97;;
6027;SDS011;3042;43.194;27.646;2023-09-19T09:23:17;19.23;;;18.03;;
6027;SDS011;3042;43.194;27.646;2023-09-19T09:25:47;22.97;;;20.70;;
6027;SDS011;3042;43.194;27.646;2023-09-19T09:28:20;39.57;;;20.57;;
6027;SDS011;3042;43.194;27.646;2023-09-19T09:30:48;33.33;;;21.60;;
6027;SDS011;3042;43.194;27.646;2023-09-19T09:33:15;27.80;;;19.10;;
6027;SDS011;3042;43.194;27.646;2023-09-19T09:35:49;21.13;;;19.30;;
6027;SDS011;3042;43.194;27.646;2023-09-19T09:38:20;20.43;;;18.83;;
6027;SDS011;3042;43.194;27.646;2023-09-19T09:40:51;20.93;;;19.23;;
6027;SDS011;3042;43.194;27.646;2023-09-19T09:43:28;21.80;;;19.73;;
6027;SDS011;3042;43.194;27.646;2023-09-19T09:46:07;23.95;;;21.50;;
6027;SDS011;3042;43.194;27.646;2023-09-19T09:48:59;22.90;;;19.70;;
6027;SDS011;3042;43.194;27.646;2023-09-19T09:51:44;20.30;;;19.07;;
6027;SDS011;3042;43.194;27.646;2023-09-19T09:54:25;19.30;;;17.90;;
6027;SDS011;3042;43.194;27.646;2023-09-19T09:57:03;24.73;;;18.70;;
6027;SDS011;3042;43.194;27.646;2023-09-19T09:59:49;18.87;;;17.63;;
6027;SDS011;3042;43.194;27.646;2023-09-19T10:02:25;18.40;;;17.20;;
6027;SDS011;3042;43.194;27.646;2023-09-19T10:05:16;18.60;;;17.30;;
6027;SDS011;3042;43.194;27.646;2023-09-19T10:07:55;19.10;;;17.70;;
6027;SDS011;3042;43.194;27.646;2023-09-19T10:10:31;19.40;;;18.23;;
6027;SDS011;3042;43.194;27.646;2023-09-19T10:13:11;19.03;;;17.83;;
6027;SDS011;3042;43.194;27.646;2023-09-19T10:15:40;21.00;;;18.83;;
6027;SDS011;3042;43.194;27.646;2023-09-19T10:18:15;20.97;;;19.13;;
6027;SDS011;3042;43.194;27.646;2023-09-19T10:20:49;17.87;;;16.57;;
6027;SDS011;3042;43.194;27.646;2023-09-19T10:23:18;18.43;;;17.33;;
6027;SDS011;3042;43.194;27.646;2023-09-19T10:25:50;33.03;;;18.77;;
6027;SDS011;3042;43.194;27.646;2023-09-19T10:28:18;19.83;;;18.07;;
6027;SDS011;3042;43.194;27.646;2023-09-19T10:30:47;17.33;;;16.43;;
6027;SDS011;3042;43.194;27.646;2023-09-19T10:33:17;35.20;;;19.17;;
6027;SDS011;3042;43.194;27.646;2023-09-19T10:35:46;17.83;;;16.80;;
6027;SDS011;3042;43.194;27.646;2023-09-19T10:38:14;18.97;;;17.40;;
6027;SDS011;3042;43.194;27.646;2023-09-19T10:40:48;25.67;;;19.23;;
6027;SDS011;3042;43.194;27.646;2023-09-19T10:43:18;28.87;;;19.20;;
6027;SDS011;3042;43.194;27.646;2023-09-19T10:45:46;17.37;;;16.47;;
6027;SDS011;3042;43.194;27.646;2023-09-19T10:48:15;22.10;;;19.83;;
6027;SDS011;3042;43.194;27.646;2023-09-19T10:50:45;29.33;;;25.20;;
6027;SDS011;3042;43.194;27.646;2023-09-19T10:53:16;18.97;;;17.40;;
6027;SDS011;3042;43.194;27.646;2023-09-19T10:55:48;21.17;;;19.40;;
6027;SDS011;3042;43.194;27.646;2023-09-19T10:58:25;20.93;;;18.73;;
6027;SDS011;3042;43.194;27.646;2023-09-19T11:01:00;52.47;;;22.00;;
6027;SDS011;3042;43.194;27.646;2023-09-19T11:03:38;31.93;;;18.67;;
6027;SDS011;3042;43.194;27.646;2023-09-19T11:06:13;50.77;;;19.47;;
6027;SDS011;3042;43.194;27.646;2023-09-19T11:08:52;24.33;;;17.10;;
6027;SDS011;3042;43.194;27.646;2023-09-19T11:14:30;19.23;;;18.00;;
6027;SDS011;3042;43.194;27.646;2023-09-19T11:23:22;46.33;;;21.27;;
6027;SDS011;3042;43.194;27.646;2023-09-19T11:25:49;20.67;;;18.90;;
6027;SDS011;3042;43.194;27.646;2023-09-19T11:28:32;19.03;;;16.80;;
6027;SDS011;3042;43.194;27.646;2023-09-19T11:34:40;18.60;;;17.50;;
6027;SDS011;3042;43.194;27.646;2023-09-19T11:40:27;19.90;;;16.63;;
6027;SDS011;3042;43.194;27.646;2023-09-19T11:42:55;18.63;;;17.33;;
6027;SDS011;3042;43.194;27.646;2023-09-19T11:48:28;21.90;;;20.20;;
6027;SDS011;3042;43.194;27.646;2023-09-19T11:50:58;22.23;;;20.03;;
6027;SDS011;3042;43.194;27.646;2023-09-19T11:53:30;40.13;;;17.80;;
6027;SDS011;3042;43.194;27.646;2023-09-19T11:56:01;19.30;;;17.57;;
6027;SDS011;3042;43.194;27.646;2023-09-19T11:58:30;30.37;;;18.37;;
6027;SDS011;3042;43.194;27.646;2023-09-19T12:00:58;25.13;;;18.00;;
6027;SDS011;3042;43.194;27.646;2023-09-19T12:03:36;18.13;;;16.87;;
6027;SDS011;3042;43.194;27.646;2023-09-19T12:06:10;18.83;;;17.00;;
6027;SDS011;3042;43.194;27.646;2023-09-19T12:08:40;39.20;;;18.90;;
6027;SDS011;3042;43.194;27.646;2023-09-19T12:11:12;35.63;;;32.73;;
6027;SDS011;3042;43.194;27.646;2023-09-19T12:13:43;27.80;;;22.40;;
6027;SDS011;3042;43.194;27.646;2023-09-19T12:16:15;21.33;;;19.10;;
6027;SDS011;3042;43.194;27.646;2023-09-19T12:18:44;20.70;;;17.63;;
6027;SDS011;3042;43.194;27.646;2023-09-19T12:21:23;19.30;;;16.47;;
6027;SDS011;3042;43.194;27.646;2023-09-19T12:23:57;21.15;;;19.30;;
6027;SDS011;3042;43.194;27.646;2023-09-19T12:26:41;22.03;;;18.53;;
6027;SDS011;3042;43.194;27.646;2023-09-19T12:29:14;19.57;;;17.77;;
6027;SDS011;3042;43.194;27.646;2023-09-19T12:31:51;18.90;;;17.40;;
6027;SDS011;3042;43.194;27.646;2023-09-19T12:34:22;18.47;;;17.10;;
6027;SDS011;3042;43.194;27.646;2023-09-19T12:37:08;20.80;;;19.40;;
6027;SDS011;3042;43.194;27.646;2023-09-19T12:39:41;17.80;;;16.80;;
6027;SDS011;3042;43.194;27.646;2023-09-19T12:42:13;18.57;;;17.07;;
6027;SDS011;3042;43.194;27.646;2023-09-19T12:44:42;19.50;;;17.97;;
6027;SDS011;3042;43.194;27.646;2023-09-19T12:47:11;20.30;;;18.73;;
6027;SDS011;3042;43.194;27.646;2023-09-19T12:52:45;29.13;;;26.30;;
6027;SDS011;3042;43.194;27.646;2023-09-19T12:55:20;41.87;;;19.63;;
6027;SDS011;3042;43.194;27.646;2023-09-19T13:00:41;25.63;;;22.37;;
6027;SDS011;3042;43.194;27.646;2023-09-19T13:03:13;21.30;;;19.00;;
6027;SDS011;3042;43.194;27.646;2023-09-19T13:05:52;54.23;;;19.40;;
6027;SDS011;3042;43.194;27.646;2023-09-19T13:08:24;26.50;;;18.80;;
6027;SDS011;3042;43.194;27.646;2023-09-19T13:11:02;23.00;;;18.00;;
6027;SDS011;3042;43.194;27.646;2023-09-19T13:13:35;35.53;;;18.90;;
6027;SDS011;3042;43.194;27.646;2023-09-19T13:16:06;19.80;;;18.50;;
6027;SDS011;3042;43.194;27.646;2023-09-19T13:18:47;21.30;;;19.83;;
6027;SDS011;3042;43.194;27.646;2023-09-19T13:21:26;20.07;;;18.07;;
6027;SDS011;3042;43.194;27.646;2023-09-19T13:23:56;18.70;;;17.50;;
6027;SDS011;3042;43.194;27.646;2023-09-19T13:26:43;22.63;;;20.93;;
6027;SDS011;3042;43.194;27.646;2023-09-19T13:29:10;17.87;;;16.67;;
6027;SDS011;3042;43.194;27.646;2023-09-19T13:31:39;19.33;;;17.90;;
6027;SDS011;3042;43.194;27.646;2023-09-19T13:34:07;18.93;;;17.83;;
6027;SDS011;3042;43.194;27.646;2023-09-19T13:36:35;21.93;;;18.60;;
6027;SDS011;3042;43.194;27.646;2023-09-19T13:39:03;39.07;;;22.50;;
6027;SDS011;3042;43.194;27.646;2023-09-19T13:41:34;36.07;;;19.53;;
6027;SDS011;3042;43.194;27.646;2023-09-19T13:44:02;36.67;;;19.13;;
6027;SDS011;3042;43.194;27.646;2023-09-19T13:46:29;19.27;;;17.47;;
6027;SDS011;3042;43.194;27.646;2023-09-19T13:49:00;27.97;;;18.13;;
6027;SDS011;3042;43.194;27.646;2023-09-19T13:51:28;24.77;;;19.70;;
6027;SDS011;3042;43.194;27.646;2023-09-19T13:53:57;19.17;;;17.87;;
6027;SDS011;3042;43.194;27.646;2023-09-19T13:56:25;20.17;;;18.40;;
6027;SDS011;3042;43.194;27.646;2023-09-19T13:58:55;50.57;;;20.97;;
6027;SDS011;3042;43.194;27.646;2023-09-19T14:01:22;68.10;;;22.50;;
6027;SDS011;3042;43.194;27.646;2023-09-19T14:03:50;21.13;;;18.87;;
6027;SDS011;3042;43.194;27.646;2023-09-19T14:06:19;26.63;;;24.17;;
6027;SDS011;3042;43.194;27.646;2023-09-19T14:08:46;24.43;;;19.00;;
6027;SDS011;3042;43.194;27.646;2023-09-19T14:11:16;56.03;;;21.40;;
6027;SDS011;3042;43.194;27.646;2023-09-19T14:13:43;19.23;;;17.83;;
6027;SDS011;3042;43.194;27.646;2023-09-19T14:16:13;20.47;;;18.53;;
6027;SDS011;3042;43.194;27.646;2023-09-19T14:18:40;18.87;;;17.17;;
6027;SDS011;3042;43.194;27.646;2023-09-19T14:21:07;18.80;;;17.43;;
6027;SDS011;3042;43.194;27.646;2023-09-19T14:23:36;21.77;;;20.10;;
6027;SDS011;3042;43.194;27.646;2023-09-19T14:26:04;20.07;;;18.53;;
6027;SDS011;3042;43.194;27.646;2023-09-19T14:28:33;18.27;;;17.27;;
6027;SDS011;3042;43.194;27.646;2023-09-19T14:31:03;23.40;;;18.23;;
6027;SDS011;3042;43.194;27.646;2023-09-19T14:33:32;22.30;;;20.70;;
6027;SDS011;3042;43.194;27.646;2023-09-19T14:36:01;19.97;;;18.03;;
6027;SDS011;3042;43.194;27.646;2023-09-19T14:38:30;24.17;;;19.23;;
6027;SDS011;3042;43.194;27.646;2023-09-19T14:40:59;18.73;;;17.00;;
6027;SDS011;3042;43.194;27.646;2023-09-19T14:43:28;27.93;;;24.90;;
6027;SDS011;3042;43.194;27.646;2023-09-19T14:45:57;18.50;;;17.10;;
6027;SDS011;3042;43.194;27.646;2023-09-19T14:48:24;21.57;;;19.87;;
6027;SDS011;3042;43.194;27.646;2023-09-19T14:50:51;28.03;;;25.50;;
6027;SDS011;3042;43.194;27.646;2023-09-19T14:53:20;24.53;;;17.17;;
6027;SDS011;3042;43.194;27.646;2023-09-19T14:55:47;19.97;;;18.43;;
6027;SDS011;3042;43.194;27.646;2023-09-19T14:58:17;20.93;;;19.23;;
6027;SDS011;3042;43.194;27.646;2023-09-19T15:00:44;20.33;;;18.70;;
6027;SDS011;3042;43.194;27.646;2023-09-19T15:03:13;25.83;;;20.27;;
6027;SDS011;3042;43.194;27.646;2023-09-19T15:05:40;21.57;;;20.00;;
6027;SDS011;3042;43.194;27.646;2023-09-19T15:08:07;22.33;;;19.90;;
6027;SDS011;3042;43.194;27.646;2023-09-19T15:10:34;20.20;;;18.50;;
6027;SDS011;3042;43.194;27.646;2023-09-19T15:13:01;22.87;;;18.40;;
6027;SDS011;3042;43.194;27.646;2023-09-19T15:15:31;22.35;;;20.50;;
6027;SDS011;3042;43.194;27.646;2023-09-19T15:17:58;42.80;;;40.00;;